Time;durP1;ratioP1;P1;durP2;ratioP2;P2;SDS_P1;SDS_P2;PMS_P1;PMS_P2;Temp;Humidity;BMP_temperature;BMP_pressure;BME280_temperature;BME280_humidity;BME280_pressure;Samples;Min_cycle;Max_cycle;Signal;HPM_P1;HPM_P2
2021/05/24 00:01:00;;;;;;;1.40;1.10;;;;;;;13.92;84.88;98055.22;5016129;28;20290;-72
2021/05/24 00:03:26;;;;;;;4.07;1.17;;;;;;;13.94;83.50;98045.91;5034330;28;20321;-72
2021/05/24 00:05:53;;;;;;;1.60;1.00;;;;;;;13.83;84.92;98029.72;5016060;28;20207;-72
2021/05/24 00:08:21;;;;;;;3.17;0.80;;;;;;;13.92;83.65;98031.06;5009399;28;20385;-72
2021/05/24 00:10:49;;;;;;;2.90;1.23;;;;;;;13.71;86.74;98021.56;5007572;28;20200;-72
2021/05/24 00:13:21;;;;;;;2.73;1.03;;;;;;;13.57;88.03;98006.63;5013991;28;20209;-71
2021/05/24 00:15:50;;;;;;;2.60;0.90;;;;;;;13.43;88.68;98009.66;5017667;28;20207;-72
2021/05/24 00:18:17;;;;;;;8.77;1.40;;;;;;;13.67;88.38;98014.19;5003864;28;20781;-72
2021/05/24 00:20:47;;;;;;;4.63;1.43;;;;;;;13.86;86.04;98010.50;5006659;28;20202;-72
2021/05/24 00:23:13;;;;;;;2.53;1.30;;;;;;;13.79;85.50;97997.16;5025794;28;20217;-72
2021/05/24 00:25:41;;;;;;;1.83;1.03;;;;;;;13.69;86.51;98004.91;5009650;28;20669;-72
2021/05/24 00:28:12;;;;;;;5.40;1.23;;;;;;;13.68;86.66;98003.22;5009863;28;20210;-72
2021/05/24 00:30:39;;;;;;;2.53;1.13;;;;;;;13.60;87.34;98005.38;5013846;28;20242;-73
2021/05/24 00:33:07;;;;;;;1.73;1.10;;;;;;;13.56;87.78;98002.31;5009910;28;20195;-72
2021/05/24 00:35:34;;;;;;;3.57;1.60;;;;;;;13.19;90.76;98003.25;5023325;28;20549;-71
2021/05/24 00:38:01;;;;;;;4.47;1.83;;;;;;;13.36;90.67;98000.81;5009643;28;20345;-72
2021/05/24 00:40:29;;;;;;;2.47;1.10;;;;;;;12.96;92.98;98005.66;5013135;28;20226;-72
2021/05/24 00:42:56;;;;;;;2.63;1.20;;;;;;;13.17;93.07;98001.81;5013069;28;20230;-72
2021/05/24 00:45:24;;;;;;;3.23;1.30;;;;;;;13.20;92.71;97993.34;5007763;28;20195;-72
2021/05/24 00:47:51;;;;;;;2.43;1.27;;;;;;;13.43;90.78;97983.66;5011026;28;20207;-72
2021/05/24 00:50:19;;;;;;;1.73;0.90;;;;;;;13.46;90.08;97974.34;5020192;28;20233;-73
2021/05/24 00:52:46;;;;;;;1.60;1.23;;;;;;;13.48;89.41;97962.38;5015297;28;20199;-72
2021/05/24 00:55:13;;;;;;;3.03;1.17;;;;;;;13.50;88.63;97959.47;5012641;28;20614;-71
2021/05/24 00:57:41;;;;;;;6.33;1.50;;;;;;;13.39;88.57;97954.84;5014558;28;20213;-72
2021/05/24 01:00:13;;;;;;;2.90;1.40;;;;;;;13.17;89.85;97950.91;5001322;28;20219;-72
2021/05/24 01:02:40;;;;;;;3.87;1.40;;;;;;;13.51;87.91;97959.25;5013240;28;20222;-72
2021/05/24 01:05:08;;;;;;;2.77;1.57;;;;;;;13.22;87.90;97956.44;5009963;28;20208;-72
2021/05/24 01:07:35;;;;;;;6.03;1.63;;;;;;;13.59;86.69;97963.53;5000360;28;20651;-72
2021/05/24 01:10:02;;;;;;;5.07;1.40;;;;;;;13.45;86.15;97956.63;5009458;28;20304;-72
2021/05/24 01:12:29;;;;;;;2.47;1.30;;;;;;;13.67;84.60;97960.56;5018951;28;20199;-72
2021/05/24 01:14:56;;;;;;;1.90;1.00;;;;;;;13.74;84.03;97956.78;5012613;28;20286;-72
2021/05/24 01:17:24;;;;;;;3.57;1.30;;;;;;;13.66;83.63;97948.19;5004211;28;20211;-72
2021/05/24 01:19:51;;;;;;;3.53;1.30;;;;;;;13.82;86.25;97950.31;5010326;28;20227;-72
2021/05/24 01:22:20;;;;;;;9.17;1.40;;;;;;;14.01;83.69;97946.56;5005619;28;20226;-72
2021/05/24 01:24:48;;;;;;;3.87;1.90;;;;;;;13.94;84.14;97943.94;5009781;28;20280;-72
2021/05/24 01:27:15;;;;;;;2.27;1.50;;;;;;;13.84;83.65;97930.25;5026346;28;20229;-72
2021/05/24 01:29:42;;;;;;;3.30;1.40;;;;;;;13.68;84.75;97941.53;5012389;28;20239;-72
2021/05/24 01:32:10;;;;;;;2.03;1.57;;;;;;;13.88;84.03;97925.25;5008683;28;20198;-72
2021/05/24 01:34:37;;;;;;;4.37;1.53;;;;;;;13.80;84.55;97921.00;5007663;28;20269;-71
2021/05/24 01:37:04;;;;;;;3.43;1.63;;;;;;;13.75;84.18;97922.72;5011912;28;20257;-72
2021/05/24 01:39:32;;;;;;;3.00;1.57;;;;;;;13.41;87.05;97916.03;5018279;28;20749;-71
2021/05/24 01:41:59;;;;;;;2.53;1.63;;;;;;;13.35;89.26;97913.41;5010979;28;20227;-72
2021/05/24 01:44:31;;;;;;;3.57;1.50;;;;;;;13.66;87.06;97916.00;5007493;28;20671;-72
2021/05/24 01:46:58;;;;;;;3.17;1.37;;;;;;;13.74;86.11;97905.00;5008220;28;20199;-71
2021/05/24 01:49:26;;;;;;;2.53;1.37;;;;;;;13.68;86.29;97897.84;5007928;28;20222;-72
2021/05/24 01:51:53;;;;;;;2.77;1.53;;;;;;;13.55;87.34;97897.97;5011776;28;20207;-71
2021/05/24 01:54:20;;;;;;;3.77;1.83;;;;;;;13.33;90.47;97908.28;5015135;28;20252;-72
2021/05/24 01:56:47;;;;;;;3.97;1.40;;;;;;;13.08;91.59;97914.69;5013502;28;20199;-71
2021/05/24 01:59:15;;;;;;;2.47;1.60;;;;;;;13.23;91.31;97909.84;5012067;28;20249;-72
2021/05/24 02:01:42;;;;;;;4.83;1.50;;;;;;;13.22;91.37;97902.84;5012227;28;20256;-72
2021/05/24 02:04:09;;;;;;;2.93;1.57;;;;;;;13.04;92.53;97902.78;5003813;28;20340;-71
2021/05/24 02:06:36;;;;;;;2.63;1.60;;;;;;;13.11;93.08;97909.72;5006085;28;20213;-72
2021/05/24 02:09:04;;;;;;;3.63;1.90;;;;;;;13.30;91.07;97911.41;5021966;28;20736;-72
2021/05/24 02:11:31;;;;;;;3.60;1.73;;;;;;;13.04;92.74;97910.81;5022124;28;20199;-71
2021/05/24 02:13:59;;;;;;;3.83;1.90;;;;;;;13.07;92.22;97897.78;5010935;28;20249;-72
2021/05/24 02:16:33;;;;;;;3.10;2.00;;;;;;;13.08;93.18;97898.63;5006689;28;20206;-73
2021/05/24 02:19:00;;;;;;;3.87;1.93;;;;;;;13.09;93.43;97909.13;5009962;28;20229;-73
2021/05/24 02:21:26;;;;;;;3.70;1.80;;;;;;;13.13;93.69;97896.94;5010876;28;20567;-72
2021/05/24 02:23:53;;;;;;;3.00;2.00;;;;;;;12.93;95.88;97903.47;5015027;28;20249;-72
2021/05/24 02:26:20;;;;;;;3.37;1.90;;;;;;;13.15;93.94;97892.16;5011407;28;20253;-72
2021/05/24 02:28:47;;;;;;;5.93;1.80;;;;;;;13.03;94.87;97893.09;5003692;28;20714;-71
2021/05/24 02:31:14;;;;;;;4.43;1.93;;;;;;;13.13;93.63;97893.44;5007185;28;20209;-72
2021/05/24 02:33:41;;;;;;;3.50;1.93;;;;;;;12.93;95.12;97882.03;5003736;28;20230;-72
2021/05/24 02:36:08;;;;;;;3.53;1.90;;;;;;;13.10;94.94;97869.75;5004031;28;20200;-71
2021/05/24 02:38:35;;;;;;;5.07;1.70;;;;;;;13.15;93.70;97843.94;5024830;28;20554;-72
2021/05/24 02:41:02;;;;;;;3.90;1.97;;;;;;;13.19;93.29;97863.91;5010650;28;20296;-72
2021/05/24 02:43:29;;;;;;;2.30;1.80;;;;;;;13.30;93.09;97871.22;5013950;28;20215;-72
2021/05/24 02:45:55;;;;;;;3.63;1.87;;;;;;;13.01;95.23;97866.53;5011301;28;20207;-72
2021/05/24 02:48:23;;;;;;;3.83;1.90;;;;;;;13.41;92.34;97858.94;5009770;28;20239;-72
2021/05/24 02:50:50;;;;;;;1.70;1.50;;;;;;;13.36;93.15;97858.75;5024631;28;20198;-72
2021/05/24 02:53:17;;;;;;;3.40;1.83;;;;;;;13.42;91.96;97852.53;5009281;28;20203;-72
2021/05/24 02:55:44;;;;;;;4.97;1.50;;;;;;;13.38;92.78;97845.97;5015142;28;20686;-72
2021/05/24 02:58:11;;;;;;;3.77;1.60;;;;;;;13.49;92.27;97832.66;5015204;28;20302;-73
2021/05/24 03:00:38;;;;;;;3.07;1.60;;;;;;;13.22;93.99;97836.66;5012841;28;20703;-72
2021/05/24 03:03:05;;;;;;;5.57;1.70;;;;;;;13.50;90.96;97849.56;5017481;28;20213;-71
2021/05/24 03:05:33;;;;;;;4.87;1.77;;;;;;;13.56;90.30;97852.16;5024190;28;20241;-72
2021/05/24 03:08:01;;;;;;;2.97;1.33;;;;;;;13.58;89.77;97849.28;5015254;28;20574;-72
2021/05/24 03:10:28;;;;;;;2.43;1.67;;;;;;;13.65;89.46;97856.19;5015035;28;20227;-72
2021/05/24 03:12:55;;;;;;;5.00;2.17;;;;;;;13.55;90.81;97857.75;5009931;28;20720;-72
2021/05/24 03:15:23;;;;;;;3.20;1.60;;;;;;;13.50;91.00;97849.56;5014948;28;20205;-72
2021/05/24 03:17:49;;;;;;;2.93;1.63;;;;;;;13.77;89.14;97845.53;5009086;28;20561;-72
2021/05/24 03:20:17;;;;;;;3.30;1.50;;;;;;;13.75;89.03;97847.63;5021363;28;20226;-72
2021/05/24 03:22:46;;;;;;;3.70;1.80;;;;;;;13.76;88.45;97863.50;5010454;28;20222;-72
2021/05/24 03:25:14;;;;;;;2.43;1.50;;;;;;;13.76;88.33;97859.97;5014216;28;20208;-71
2021/05/24 03:27:41;;;;;;;3.00;1.30;;;;;;;13.71;89.71;97865.19;5009972;28;20207;-71
2021/05/24 03:30:10;;;;;;;2.53;1.63;;;;;;;13.76;88.88;97851.94;5013340;28;20247;-72
2021/05/24 03:32:37;;;;;;;8.63;1.90;;;;;;;13.77;89.13;97851.72;5021097;28;20206;-72
2021/05/24 03:35:05;;;;;;;3.47;1.50;;;;;;;13.68;88.61;97846.88;5017424;28;20207;-72
2021/05/24 03:37:32;;;;;;;2.93;1.67;;;;;;;13.74;89.76;97857.53;5014504;28;20257;-72
2021/05/24 03:39:59;;;;;;;3.60;1.43;;;;;;;13.80;88.80;97848.59;5011483;28;20730;-72
2021/05/24 03:42:26;;;;;;;3.57;1.33;;;;;;;13.81;88.93;97850.22;5008418;28;20227;-73
2021/05/24 03:44:53;;;;;;;3.57;1.53;;;;;;;13.51;91.01;97852.03;5013174;28;20212;-72
2021/05/24 03:47:20;;;;;;;2.57;1.30;;;;;;;13.81;89.63;97847.53;5028823;28;20288;-72
2021/05/24 03:49:47;;;;;;;2.93;1.90;;;;;;;13.60;91.32;97836.44;5009142;28;20227;-72
2021/05/24 03:52:14;;;;;;;2.30;1.47;;;;;;;13.88;89.69;97837.53;5002931;28;20215;-72
2021/05/24 03:54:41;;;;;;;3.47;1.70;;;;;;;13.87;89.15;97835.91;5012354;28;20207;-72
2021/05/24 03:57:09;;;;;;;1.87;1.40;;;;;;;13.94;88.71;97833.94;5014394;28;20234;-72
2021/05/24 03:59:36;;;;;;;2.90;1.43;;;;;;;13.98;88.92;97837.81;5021171;28;20273;-71
2021/05/24 04:02:03;;;;;;;1.83;1.20;;;;;;;13.65;90.61;97834.75;5025191;28;20218;-72
2021/05/24 04:04:30;;;;;;;2.30;1.40;;;;;;;13.91;89.79;97828.22;5013018;28;20558;-71
2021/05/24 04:07:02;;;;;;;2.40;1.50;;;;;;;13.87;90.64;97824.38;5006374;28;20545;-72
2021/05/24 04:09:29;;;;;;;5.87;1.60;;;;;;;13.78;89.89;97844.50;5005170;28;20249;-72
2021/05/24 04:11:55;;;;;;;1.53;1.40;;;;;;;13.73;92.81;97837.09;5015871;28;20206;-72
2021/05/24 04:14:23;;;;;;;2.07;1.27;;;;;;;14.00;89.27;97832.22;5030192;28;20610;-71
2021/05/24 04:16:50;;;;;;;3.20;1.30;;;;;;;14.05;88.20;97833.22;5011828;28;20249;-72
2021/05/24 04:19:17;;;;;;;4.67;1.50;;;;;;;14.17;87.50;97835.91;5007234;28;20217;-72
2021/05/24 04:21:45;;;;;;;3.87;1.47;;;;;;;14.14;86.79;97839.88;5007334;28;20275;-72
2021/05/24 04:24:13;;;;;;;2.20;1.30;;;;;;;13.93;89.29;97820.78;5002076;28;20631;-72
2021/05/24 04:26:41;;;;;;;3.43;1.60;;;;;;;13.94;88.18;97838.50;5008359;28;20293;-72
2021/05/24 04:29:08;;;;;;;2.33;1.50;;;;;;;14.22;86.38;97838.75;5030405;28;20223;-72
2021/05/24 04:31:36;;;;;;;2.47;1.30;;;;;;;14.32;85.21;97839.88;5017714;28;20290;-72
2021/05/24 04:34:03;;;;;;;2.30;1.57;;;;;;;14.43;84.52;97838.28;5009045;28;20207;-71
2021/05/24 04:36:29;;;;;;;2.40;1.40;;;;;;;13.78;89.14;97826.53;5003517;28;20204;-72
2021/05/24 04:38:56;;;;;;;1.90;1.17;;;;;;;13.88;90.88;97826.00;5010882;28;20618;-71
2021/05/24 04:41:23;;;;;;;2.83;1.47;;;;;;;14.55;85.88;97823.00;5018577;28;20207;-71
2021/05/24 04:43:55;;;;;;;2.20;1.20;;;;;;;14.67;84.10;97831.91;5019199;28;20318;-72
2021/05/24 04:46:22;;;;;;;1.43;1.20;;;;;;;14.33;86.18;97820.03;5007611;28;20195;-72
2021/05/24 04:48:49;;;;;;;2.23;1.20;;;;;;;14.45;84.68;97826.28;5006453;28;20227;-72
2021/05/24 04:51:16;;;;;;;2.17;1.10;;;;;;;14.26;85.76;97823.84;5002151;28;20318;-76
2021/05/24 04:53:43;;;;;;;1.50;1.03;;;;;;;14.79;84.31;97819.31;5003171;28;20195;-72
2021/05/24 04:56:10;;;;;;;2.03;1.33;;;;;;;15.03;82.66;97820.97;5002902;28;20272;-75
2021/05/24 04:58:36;;;;;;;2.90;1.30;;;;;;;14.40;83.77;97812.72;5014777;28;20342;-71
2021/05/24 05:01:03;;;;;;;2.10;1.30;;;;;;;14.81;84.80;97809.16;5005489;28;20211;-74
2021/05/24 05:03:33;;;;;;;1.13;0.83;;;;;;;14.99;83.31;97809.84;5012639;28;20222;-76
2021/05/24 05:06:01;;;;;;;2.73;1.00;;;;;;;15.24;80.07;97826.56;5011682;28;20231;-77
2021/05/24 05:08:28;;;;;;;1.03;0.90;;;;;;;15.31;81.32;97815.72;5013252;28;20268;-75
2021/05/24 05:10:55;;;;;;;1.57;1.10;;;;;;;15.25;78.81;97827.41;5017447;28;20674;-74
2021/05/24 05:13:21;;;;;;;1.23;1.13;;;;;;;15.36;79.93;97823.91;5012184;28;20198;-74
2021/05/24 05:15:48;;;;;;;2.43;0.80;;;;;;;15.70;79.16;97823.84;5012049;28;20263;-73
2021/05/24 05:18:15;;;;;;;1.57;1.10;;;;;;;15.67;78.62;97831.59;5002114;28;20203;-74
2021/05/24 05:20:42;;;;;;;3.80;1.10;;;;;;;15.98;75.69;97831.16;5001843;28;20259;-73
2021/05/24 05:23:10;;;;;;;4.07;1.10;;;;;;;14.66;78.82;97823.03;5008423;28;20307;-74
2021/05/24 05:25:36;;;;;;;2.23;1.50;;;;;;;14.98;79.31;97815.47;5014264;28;20906;-74
2021/05/24 05:28:04;;;;;;;1.87;1.30;;;;;;;15.46;76.23;97819.56;5011671;28;20319;-74
2021/05/24 05:30:30;;;;;;;2.80;1.47;;;;;;;16.05;72.25;97819.19;5011605;28;20222;-72
2021/05/24 05:32:57;;;;;;;3.03;1.60;;;;;;;16.46;70.87;97818.91;5013137;28;20205;-73
2021/05/24 05:35:24;;;;;;;2.80;1.30;;;;;;;15.32;72.18;97825.41;5011776;28;20206;-71
2021/05/24 05:37:52;;;;;;;4.63;1.23;;;;;;;14.78;77.22;97813.13;5008009;28;20675;-73
2021/05/24 05:40:20;;;;;;;2.97;1.40;;;;;;;15.36;74.43;97822.06;5023753;28;20703;-71
2021/05/24 05:42:48;;;;;;;1.97;1.27;;;;;;;16.32;70.41;97820.22;5012916;28;20722;-74
2021/05/24 05:45:16;;;;;;;3.33;1.43;;;;;;;16.60;69.26;97819.41;5012055;28;20349;-71
2021/05/24 05:47:43;;;;;;;2.43;1.40;;;;;;;16.97;67.60;97823.28;5012535;28;20202;-71
2021/05/24 05:50:10;;;;;;;4.40;1.67;;;;;;;16.98;66.43;97811.44;5004257;28;20701;-74
2021/05/24 05:52:38;;;;;;;1.83;1.30;;;;;;;16.57;67.68;97817.22;5014257;28;20207;-72
2021/05/24 05:55:06;;;;;;;2.63;2.13;;;;;;;16.10;72.41;97800.44;5016825;28;20209;-71
2021/05/24 05:57:34;;;;;;;3.07;1.63;;;;;;;15.66;76.61;97785.03;5012331;28;20199;-72
2021/05/24 06:00:00;;;;;;;3.37;1.77;;;;;;;15.91;73.72;97788.22;5012229;28;20221;-73
2021/05/24 06:02:27;;;;;;;3.03;1.53;;;;;;;16.21;69.03;97802.25;5012143;28;20642;-72
2021/05/24 06:04:54;;;;;;;4.37;1.80;;;;;;;16.72;67.34;97807.50;5005286;28;20210;-74
2021/05/24 06:07:21;;;;;;;2.87;1.67;;;;;;;16.73;67.25;97784.06;5025759;28;20208;-73
2021/05/24 06:09:48;;;;;;;3.83;1.80;;;;;;;16.58;68.23;97783.81;5021430;28;20232;-73
2021/05/24 06:12:15;;;;;;;2.73;1.50;;;;;;;16.15;73.04;97778.16;5013714;28;20701;-74
2021/05/24 06:14:43;;;;;;;1.80;1.30;;;;;;;17.35;66.38;97791.78;5010743;28;20209;-73
2021/05/24 06:17:10;;;;;;;1.93;1.50;;;;;;;17.77;62.51;97789.38;5002115;28;20207;-73
2021/05/24 06:19:36;;;;;;;3.37;1.27;;;;;;;17.77;61.53;97801.00;5010733;28;20744;-78
2021/05/24 06:22:03;;;;;;;2.90;1.30;;;;;;;16.37;67.96;97788.00;5022543;28;20221;-84
2021/05/24 06:24:30;;;;;;;5.23;1.50;;;;;;;16.37;67.31;97796.09;5022945;28;20207;-82
2021/05/24 06:26:57;;;;;;;2.50;1.40;;;;;;;17.45;63.18;97800.03;5016041;28;20203;-76
2021/05/24 06:29:25;;;;;;;3.33;1.40;;;;;;;17.86;61.59;97796.78;5010229;28;20226;-76
2021/05/24 06:31:53;;;;;;;3.63;1.40;;;;;;;17.89;62.98;97790.06;5012602;28;20301;-82
2021/05/24 06:34:20;;;;;;;2.27;1.20;;;;;;;18.06;61.25;97793.50;5025524;28;20290;-79
2021/05/24 06:36:47;;;;;;;2.43;1.77;;;;;;;16.70;64.79;97803.41;5010507;28;20209;-74
2021/05/24 06:39:15;;;;;;;2.10;1.20;;;;;;;16.78;67.17;97787.69;5013991;28;20230;-79
2021/05/24 06:41:42;;;;;;;2.90;1.50;;;;;;;18.39;59.25;97796.84;5011023;28;20226;-79
2021/05/24 06:44:09;;;;;;;5.37;1.70;;;;;;;17.93;59.24;97797.41;5012432;28;20222;-76
2021/05/24 06:46:36;;;;;;;2.20;1.50;;;;;;;16.97;62.45;97793.63;5015222;28;20236;-76
2021/05/24 06:49:04;;;;;;;3.57;1.90;;;;;;;17.26;63.81;97789.72;5006452;28;20229;-74
2021/05/24 06:51:31;;;;;;;2.73;1.43;;;;;;;18.08;58.64;97797.56;5010894;28;20607;-76
2021/05/24 06:53:58;;;;;;;3.57;1.60;;;;;;;17.63;59.31;97805.13;5017281;28;20927;-73
2021/05/24 06:56:24;;;;;;;2.87;1.40;;;;;;;17.86;56.39;97798.66;5005912;28;20253;-75
2021/05/24 06:58:51;;;;;;;5.80;1.40;;;;;;;17.73;60.70;97780.97;5002068;28;20237;-75
2021/05/24 07:01:18;;;;;;;2.53;1.00;;;;;;;18.24;57.11;97790.47;5007197;28;20267;-75
2021/05/24 07:03:45;;;;;;;3.63;1.20;;;;;;;17.46;58.18;97804.38;5003332;28;20869;-75
2021/05/24 07:06:13;;;;;;;2.50;1.20;;;;;;;17.93;55.41;97792.00;5007734;28;20542;-74
2021/05/24 07:08:40;;;;;;;2.10;1.23;;;;;;;17.57;56.83;97797.22;5009007;28;20236;-75
2021/05/24 07:11:07;;;;;;;1.77;1.20;;;;;;;18.51;53.89;97799.41;5021399;28;20209;-77
2021/05/24 07:13:33;;;;;;;2.97;1.30;;;;;;;19.17;52.74;97799.69;5011607;28;20203;-76
2021/05/24 07:16:00;;;;;;;4.00;1.40;;;;;;;18.67;53.78;97807.41;5008796;28;20215;-75
2021/05/24 07:18:27;;;;;;;1.30;0.80;;;;;;;18.68;52.87;97800.91;5013629;28;20202;-76
2021/05/24 07:20:54;;;;;;;1.33;0.87;;;;;;;19.28;49.55;97809.53;5008589;28;20256;-76
2021/05/24 07:23:21;;;;;;;2.53;0.93;;;;;;;19.50;50.57;97802.09;5004754;28;20227;-78
2021/05/24 07:25:48;;;;;;;4.07;1.03;;;;;;;20.16;49.12;97806.75;5014555;28;20218;-79
2021/05/24 07:28:15;;;;;;;1.10;0.80;;;;;;;18.15;55.62;97787.41;5027231;28;20191;-77
2021/05/24 07:30:42;;;;;;;2.43;1.10;;;;;;;18.18;57.16;97786.09;5009497;28;20838;-76
2021/05/24 07:33:09;;;;;;;2.87;1.20;;;;;;;19.12;53.66;97783.44;5005084;28;20201;-75
2021/05/24 07:35:36;;;;;;;1.93;1.10;;;;;;;19.20;54.35;97793.75;5005711;28;20839;-74
2021/05/24 07:38:03;;;;;;;4.97;1.10;;;;;;;19.68;51.39;97785.41;5013123;28;20259;-75
2021/05/24 07:40:31;;;;;;;2.47;1.20;;;;;;;20.48;48.81;97787.56;5020345;28;20230;-76
2021/05/24 07:42:57;;;;;;;2.00;1.20;;;;;;;19.98;49.68;97790.94;5013031;28;20230;-78
2021/05/24 07:45:24;;;;;;;4.33;2.43;;;;;;;20.12;49.67;97785.88;5002266;28;20290;-79
2021/05/24 07:47:51;;;;;;;2.30;1.30;;;;;;;19.14;53.50;97780.44;5001895;28;20280;-76
2021/05/24 07:50:18;;;;;;;3.87;1.53;;;;;;;21.09;46.21;97778.41;5024009;28;20222;-75
2021/05/24 07:52:45;;;;;;;2.73;1.37;;;;;;;21.23;45.31;97784.91;5020338;28;20299;-73
2021/05/24 07:55:12;;;;;;;3.03;1.47;;;;;;;21.38;45.02;97782.16;5013864;28;20661;-76
2021/05/24 07:57:42;;;;;;;2.60;1.27;;;;;;;21.27;45.90;97775.09;5014064;28;20207;-73
2021/05/24 08:00:11;;;;;;;1.47;1.03;;;;;;;20.73;47.26;97787.59;5013896;28;20228;-73
2021/05/24 08:02:40;;;;;;;1.70;1.20;;;;;;;19.49;52.78;97767.16;5006518;28;20233;-73
2021/05/24 08:05:08;;;;;;;3.07;1.23;;;;;;;21.06;48.18;97763.47;5014812;28;20207;-73
2021/05/24 08:07:35;;;;;;;3.00;0.80;;;;;;;20.22;51.16;97758.81;5011582;28;20593;-71
2021/05/24 08:10:02;;;;;;;1.83;1.00;;;;;;;19.36;54.76;97746.00;5015051;28;20282;-78
2021/05/24 08:12:29;;;;;;;2.53;0.87;;;;;;;18.66;58.05;97750.88;5009825;28;20204;-75
2021/05/24 08:14:57;;;;;;;1.00;0.90;;;;;;;19.80;53.61;97739.13;5005225;28;20211;-74
2021/05/24 08:17:24;;;;;;;1.80;0.80;;;;;;;19.27;53.20;97747.56;5011972;28;20210;-73
2021/05/24 08:19:50;;;;;;;1.40;0.83;;;;;;;19.50;52.92;97745.25;5011204;28;20223;-73
2021/05/24 08:22:18;;;;;;;1.33;0.80;;;;;;;19.85;53.23;97731.84;5021198;28;20699;-72
2021/05/24 08:24:45;;;;;;;1.52;0.80;;;;;;;20.31;52.23;97739.03;5017651;28;20457;-74
2021/05/24 08:27:12;;;;;;;2.10;0.73;;;;;;;21.67;46.67;97743.22;5020385;28;20223;-72
2021/05/24 08:29:39;;;;;;;2.33;0.70;;;;;;;19.80;52.13;97744.53;5011305;28;20230;-72
2021/05/24 08:32:07;;;;;;;3.20;0.90;;;;;;;19.69;52.68;97740.19;5008391;28;20534;-75
2021/05/24 08:34:34;;;;;;;1.10;0.50;;;;;;;19.73;49.61;97731.28;5009984;28;20213;-71
2021/05/24 08:37:00;;;;;;;1.70;0.90;;;;;;;20.51;48.85;97720.06;5017595;28;20257;-74
2021/05/24 08:39:27;;;;;;;1.63;0.80;;;;;;;21.55;44.24;97729.16;5011319;28;20609;-74
2021/05/24 08:41:54;;;;;;;0.60;0.60;;;;;;;20.88;46.60;97719.78;5012272;28;20227;-74
2021/05/24 08:44:21;;;;;;;1.70;0.70;;;;;;;22.46;42.62;97732.25;5008745;28;20228;-75
2021/05/24 08:46:48;;;;;;;1.63;0.90;;;;;;;23.12;38.29;97744.19;5026974;28;20212;-73
2021/05/24 08:49:16;;;;;;;1.83;0.63;;;;;;;22.40;40.34;97738.78;5003675;28;20945;-77
2021/05/24 08:51:43;;;;;;;2.30;0.80;;;;;;;21.70;40.44;97733.75;5017198;28;20288;-71
2021/05/24 08:54:10;;;;;;;2.63;0.60;;;;;;;22.00;41.00;97726.25;5020952;28;20206;-72
2021/05/24 08:56:37;;;;;;;1.37;0.77;;;;;;;21.68;40.33;97739.44;5022401;28;20299;-73
2021/05/24 08:59:05;;;;;;;1.63;0.83;;;;;;;22.25;41.80;97723.38;5012928;28;20275;-71
2021/05/24 09:01:31;;;;;;;0.70;0.60;;;;;;;22.86;37.32;97730.00;5012368;28;20629;-72
2021/05/24 09:04:00;;;;;;;1.10;0.60;;;;;;;21.66;40.71;97710.91;5009784;28;20231;-72
2021/05/24 09:06:39;;;;;;;2.47;0.90;;;;;;;22.25;39.76;97708.97;5007588;28;20686;-74
2021/05/24 09:09:11;;;;;;;1.97;0.70;;;;;;;23.37;37.63;97714.84;5010945;28;20939;-72
2021/05/24 09:11:38;;;;;;;3.37;0.70;;;;;;;24.00;35.66;97718.97;5018504;28;20674;-72
2021/05/24 09:14:13;;;;;;;1.30;0.50;;;;;;;24.41;36.91;97720.00;5016165;28;20300;-79
2021/05/24 09:16:40;;;;;;;1.67;0.70;;;;;;;24.62;34.28;97721.34;5025556;28;20273;-75
2021/05/24 09:19:12;;;;;;;2.10;0.70;;;;;;;23.73;37.30;97707.03;5030983;28;20296;-78
2021/05/24 09:21:40;;;;;;;1.93;1.10;;;;;;;22.96;39.36;97696.44;5017314;28;20834;-76
2021/05/24 09:24:29;;;;;;;1.97;0.83;;;;;;;24.72;35.54;97704.00;5013510;28;20226;-76
2021/05/24 09:26:57;;;;;;;3.00;0.63;;;;;;;25.92;32.52;97707.19;5006832;28;20286;-74
2021/05/24 09:29:25;;;;;;;1.20;0.50;;;;;;;25.36;32.41;97718.44;5018190;28;20729;-73
2021/05/24 09:32:11;;;;;;;2.93;0.93;;;;;;;23.46;36.97;97699.47;5013248;28;20253;-73
2021/05/24 09:34:38;;;;;;;0.90;0.63;;;;;;;22.08;40.73;97687.63;4994236;28;20204;-72
2021/05/24 09:37:07;;;;;;;2.10;1.07;;;;;;;23.09;37.80;97693.88;5003348;28;20204;-73
2021/05/24 09:39:35;;;;;;;4.20;0.70;;;;;;;22.69;39.02;97685.25;5010045;28;20337;-73
2021/05/24 09:42:06;;;;;;;5.47;0.90;;;;;;;21.91;41.58;97675.50;4993741;28;20208;-72
2021/05/24 09:44:34;;;;;;;2.07;0.73;;;;;;;22.97;38.05;97685.28;5008078;28;20278;-73
2021/05/24 09:47:01;;;;;;;0.63;0.60;;;;;;;23.10;38.03;97679.13;5025594;28;20357;-78
2021/05/24 09:49:32;;;;;;;1.00;0.70;;;;;;;22.98;37.83;97680.63;5011356;28;20227;-76
2021/05/24 09:51:59;;;;;;;1.33;0.70;;;;;;;23.47;37.74;97675.78;5009851;28;20228;-72
2021/05/24 09:54:32;;;;;;;2.00;0.70;;;;;;;25.53;33.93;97674.91;5016879;28;20207;-74
2021/05/24 09:57:03;;;;;;;3.30;0.73;;;;;;;23.57;37.65;97673.72;5020781;28;20211;-77
2021/05/24 09:59:31;;;;;;;0.60;0.57;;;;;;;23.38;36.58;97678.31;5005919;28;20220;-75
2021/05/24 10:02:00;;;;;;;1.47;0.80;;;;;;;25.89;34.31;97673.03;5013903;28;20726;-77
2021/05/24 10:04:29;;;;;;;1.27;0.90;;;;;;;25.10;34.78;97670.81;5006769;28;20312;-75
2021/05/24 10:06:56;;;;;;;1.07;0.53;;;;;;;24.45;34.40;97671.13;5001146;28;20434;-75
2021/05/24 10:09:23;;;;;;;0.90;0.70;;;;;;;25.57;32.44;97675.91;5020735;28;20313;-81
2021/05/24 10:11:53;;;;;;;0.90;0.70;;;;;;;23.70;35.96;97661.28;5025096;28;20207;-79
2021/05/24 10:14:21;;;;;;;1.37;0.70;;;;;;;24.86;35.22;97656.53;5014481;28;20206;-77
2021/05/24 10:16:50;;;;;;;1.55;0.80;;;;;;;24.44;35.27;97642.22;5011262;28;20439;-75
2021/05/24 10:19:18;;;;;;;0.60;0.57;;;;;;;25.28;33.32;97633.63;5003971;28;20232;-73
2021/05/24 10:21:46;;;;;;;2.03;0.73;;;;;;;25.12;34.39;97637.72;5010196;28;20672;-77
2021/05/24 10:24:13;;;;;;;1.13;0.70;;;;;;;24.29;33.87;97637.84;5010165;28;20219;-75
2021/05/24 10:26:42;;;;;;;2.60;0.87;;;;;;;24.20;34.12;97636.88;5015087;28;20669;-75
2021/05/24 10:29:11;;;;;;;1.37;0.60;;;;;;;23.74;34.90;97635.06;5007080;28;20238;-73
2021/05/24 10:31:38;;;;;;;3.30;0.97;;;;;;;23.55;37.35;97626.88;5012172;28;20207;-73
2021/05/24 10:34:13;;;;;;;1.33;0.67;;;;;;;23.42;36.40;97634.97;5008678;28;20203;-72
2021/05/24 10:36:41;;;;;;;1.63;0.87;;;;;;;22.80;36.67;97633.19;5018703;28;20623;-75
2021/05/24 10:39:13;;;;;;;2.90;0.70;;;;;;;23.42;36.68;97632.25;5014007;28;20300;-77
2021/05/24 10:41:47;;;;;;;1.13;0.67;;;;;;;24.43;36.20;97621.50;5013458;28;20211;-75
2021/05/24 10:44:16;;;;;;;1.17;0.73;;;;;;;24.32;37.21;97617.34;4999584;28;20680;-79
2021/05/24 10:46:43;;;;;;;0.50;0.50;;;;;;;23.15;35.22;97629.28;5010364;28;20242;-73
2021/05/24 10:49:22;;;;;;;0.50;0.50;;;;;;;24.62;32.55;97625.81;5006274;28;20225;-77
2021/05/24 10:52:01;;;;;;;0.50;0.50;;;;;;;25.16;29.39;97645.03;5016067;28;20225;-73
2021/05/24 10:54:36;;;;;;;0.63;0.53;;;;;;;25.57;27.56;97648.59;5007437;28;20203;-74
2021/05/24 10:57:08;;;;;;;0.63;0.60;;;;;;;26.52;26.61;97653.81;5010011;28;20718;-72
2021/05/24 10:59:50;;;;;;;1.27;0.70;;;;;;;27.03;24.75;97668.69;5010977;28;20229;-74
2021/05/24 11:02:21;;;;;;;0.80;0.60;;;;;;;26.48;25.06;97666.50;5008119;28;20215;-75
2021/05/24 11:04:49;;;;;;;1.20;0.40;;;;;;;25.90;25.34;97654.72;5010131;28;20250;-72
2021/05/24 11:07:27;;;;;;;0.80;0.60;;;;;;;26.62;25.11;97654.41;5015254;28;20204;-74
2021/05/24 11:09:55;;;;;;;1.50;0.50;;;;;;;26.73;24.98;97655.78;5049932;22;20780;-79
2021/05/24 11:12:31;;;;;;;0.90;0.70;;;;;;;26.01;26.77;97635.06;5059553;28;20229;-83
2021/05/24 11:15:11;;;;;;;1.43;0.57;;;;;;;25.92;27.36;97631.44;5046796;28;20217;-81
2021/05/24 11:18:11;;;;;;;1.97;0.60;;;;;;;26.23;25.07;97642.47;5052241;28;20558;-79
2021/05/24 11:20:41;;;;;;;1.63;0.50;;;;;;;27.07;25.07;97635.97;5009469;28;20237;-77
2021/05/24 11:23:13;;;;;;;2.87;0.70;;;;;;;26.72;25.47;97629.53;5044552;28;20227;-77
2021/05/24 11:25:54;;;;;;;1.07;0.60;;;;;;;27.29;23.98;97634.00;5048856;28;20211;-77
2021/05/24 11:28:22;;;;;;;2.00;0.70;;;;;;;27.18;24.92;97629.13;5053171;28;20207;-77
2021/05/24 11:31:14;;;;;;;1.77;0.87;;;;;;;26.40;24.95;97627.00;5054023;28;20230;-77
2021/05/24 11:33:47;;;;;;;1.20;0.60;;;;;;;25.80;26.09;97613.94;5048834;28;20236;-77
2021/05/24 11:36:14;;;;;;;1.00;0.67;;;;;;;25.49;25.59;97612.97;5052603;28;20713;-76
2021/05/24 11:38:56;;;;;;;0.73;0.60;;;;;;;26.02;24.30;97633.13;5054074;28;20205;-80